Time;durP1;ratioP1;P1;durP2;ratioP2;P2;SDS_P1;SDS_P2;PMS_P1;PMS_P2;Temp;Humidity;BMP_temperature;BMP_pressure;BME280_temperature;BME280_humidity;BME280_pressure;Samples;Min_cycle;Max_cycle;Signal;HPM_P1;HPM_P2
2021/07/16 00:01:24;;;;;;;;;;;16.00;1.00;;;;;;5091955;28;19916;-61
2021/07/16 00:03:50;;;;;;;;;;;16.00;1.00;;;;;;5091794;28;20387;-61
2021/07/16 00:06:15;;;;;;;;;;;16.00;1.00;;;;;;5083318;28;19997;-62
2021/07/16 00:08:41;;;;;;;;;;;16.00;1.00;;;;;;5091393;28;19916;-61
2021/07/16 00:11:06;;;;;;;;;;;16.00;1.00;;;;;;5091859;28;19924;-63
2021/07/16 00:13:32;;;;;;;;;;;16.00;1.00;;;;;;5091101;28;19908;-64
2021/07/16 00:15:57;;;;;;;;;;;16.00;1.00;;;;;;5091692;28;19908;-63
2021/07/16 00:18:23;;;;;;;;;;;16.00;1.00;;;;;;5090727;28;19912;-61
2021/07/16 00:20:48;;;;;;;;;;;16.00;1.00;;;;;;5091766;28;19908;-61
2021/07/16 00:23:14;;;;;;;;;;;15.90;1.00;;;;;;5091917;28;19912;-59
2021/07/16 00:25:39;;;;;;;;;;;15.90;1.00;;;;;;5091375;28;19916;-60
2021/07/16 00:28:05;;;;;;;;;;;15.90;1.00;;;;;;5090192;28;19908;-61
2021/07/16 00:30:31;;;;;;;;;;;15.90;1.00;;;;;;5091845;28;19954;-61
2021/07/16 00:32:56;;;;;;;;;;;15.90;1.00;;;;;;5091858;28;19944;-60
2021/07/16 00:35:22;;;;;;;;;;;15.90;1.00;;;;;;5091268;28;19908;-61
2021/07/16 00:37:47;;;;;;;;;;;16.00;1.00;;;;;;5091373;28;19918;-61
2021/07/16 00:40:13;;;;;;;;;;;16.00;1.00;;;;;;5091491;28;19908;-60
2021/07/16 00:42:39;;;;;;;;;;;16.00;1.00;;;;;;5090003;28;19919;-61
2021/07/16 00:45:08;;;;;;;;;;;16.00;1.00;;;;;;5091454;28;19919;-60
2021/07/16 00:47:33;;;;;;;;;;;16.00;1.00;;;;;;5090885;28;20352;-61
2021/07/16 00:49:59;;;;;;;;;;;16.00;1.00;;;;;;5091116;28;19961;-61
2021/07/16 00:52:25;;;;;;;;;;;16.00;1.00;;;;;;5089942;28;19954;-61
2021/07/16 00:54:51;;;;;;;;;;;16.00;1.00;;;;;;5091257;28;19924;-61
2021/07/16 00:57:17;;;;;;;;;;;16.00;1.00;;;;;;5089074;28;20398;-58
2021/07/16 00:59:42;;;;;;;;;;;16.00;1.00;;;;;;5091096;28;20014;-60
2021/07/16 01:02:09;;;;;;;;;;;15.90;1.00;;;;;;5090695;28;19912;-61
2021/07/16 01:04:34;;;;;;;;;;;15.90;1.00;;;;;;5090345;28;19908;-61
2021/07/16 01:07:02;;;;;;;;;;;15.90;1.00;;;;;;5090633;28;19916;-61
2021/07/16 01:09:27;;;;;;;;;;;15.90;1.00;;;;;;5090353;28;19908;-61
2021/07/16 01:11:53;;;;;;;;;;;15.90;1.00;;;;;;5089500;28;19919;-61
2021/07/16 01:14:19;;;;;;;;;;;15.80;1.00;;;;;;5090671;28;20333;-61
2021/07/16 01:16:44;;;;;;;;;;;15.80;1.00;;;;;;5090236;28;19919;-61
2021/07/16 01:19:10;;;;;;;;;;;15.80;1.00;;;;;;5089641;28;19912;-61
2021/07/16 01:21:37;;;;;;;;;;;15.80;1.00;;;;;;5072137;28;19973;-62
2021/07/16 01:24:03;;;;;;;;;;;15.80;1.00;;;;;;5090649;28;19912;-62
2021/07/16 01:26:30;;;;;;;;;;;15.80;1.00;;;;;;5089578;28;20395;-62
2021/07/16 01:28:56;;;;;;;;;;;15.90;1.00;;;;;;5089304;28;19912;-61
2021/07/16 01:31:21;;;;;;;;;;;15.90;1.00;;;;;;5090648;28;19923;-62
2021/07/16 01:33:47;;;;;;;;;;;15.90;1.00;;;;;;5089831;28;19935;-61
2021/07/16 01:36:13;;;;;;;;;;;15.90;1.00;;;;;;5090401;28;20013;-61
2021/07/16 01:38:38;;;;;;;;;;;15.90;1.00;;;;;;5089461;28;19908;-61
2021/07/16 01:41:04;;;;;;;;;;;16.00;1.00;;;;;;5088085;28;19977;-60
2021/07/16 01:43:29;;;;;;;;;;;16.00;1.00;;;;;;5082944;28;19909;-60
2021/07/16 01:45:55;;;;;;;;;;;16.00;1.00;;;;;;5090568;28;20268;-63
2021/07/16 01:48:20;;;;;;;;;;;16.00;1.00;;;;;;5089218;28;19935;-62
2021/07/16 01:50:47;;;;;;;;;;;16.00;1.00;;;;;;5089976;28;19931;-63
2021/07/16 01:53:13;;;;;;;;;;;16.10;1.00;;;;;;5089914;28;20408;-62
2021/07/16 01:55:39;;;;;;;;;;;16.10;1.00;;;;;;5089467;28;19974;-63
2021/07/16 01:58:06;;;;;;;;;;;16.10;1.00;;;;;;5088730;28;19951;-61
2021/07/16 02:00:36;;;;;;;;;;;16.20;1.00;;;;;;5090298;28;20407;-63
2021/07/16 02:03:03;;;;;;;;;;;16.20;1.00;;;;;;5089513;28;19912;-62
2021/07/16 02:05:29;;;;;;;;;;;16.20;1.00;;;;;;5089003;28;19912;-65
2021/07/16 02:07:57;;;;;;;;;;;16.20;1.00;;;;;;5100831;22;19939;-60
2021/07/16 02:10:22;;;;;;;;;;;16.20;1.00;;;;;;5048172;28;19936;-59
2021/07/16 02:12:48;;;;;;;;;;;16.10;1.00;;;;;;5043862;28;19921;-58
2021/07/16 02:15:19;;;;;;;;;;;16.20;1.00;;;;;;5049229;28;19923;-58
2021/07/16 02:17:45;;;;;;;;;;;16.20;1.00;;;;;;5049206;28;20101;-60
2021/07/16 02:20:24;;;;;;;;;;;16.30;1.00;;;;;;5038702;28;19936;-59
2021/07/16 02:22:50;;;;;;;;;;;16.30;1.00;;;;;;5042318;28;20001;-60
2021/07/16 02:25:15;;;;;;;;;;;16.20;1.00;;;;;;5039363;28;20042;-61
2021/07/16 02:27:43;;;;;;;;;;;16.20;1.00;;;;;;5047067;28;20000;-59
2021/07/16 02:30:09;;;;;;;;;;;16.20;1.00;;;;;;5048869;28;19921;-57
2021/07/16 02:32:34;;;;;;;;;;;16.20;1.00;;;;;;5048312;28;20400;-58
2021/07/16 02:35:00;;;;;;;;;;;16.10;1.00;;;;;;5048164;28;19908;-59
2021/07/16 02:37:25;;;;;;;;;;;16.10;1.00;;;;;;5048398;28;20015;-60
2021/07/16 02:39:51;;;;;;;;;;;16.10;1.00;;;;;;5048198;28;19915;-59
2021/07/16 02:42:16;;;;;;;;;;;16.10;1.00;;;;;;5047444;28;20494;-56
2021/07/16 02:44:41;;;;;;;;;;;16.10;1.00;;;;;;5048621;28;19916;-59
2021/07/16 02:47:07;;;;;;;;;;;16.10;1.00;;;;;;5048473;28;20349;-59
2021/07/16 02:49:32;;;;;;;;;;;16.10;1.00;;;;;;5047900;28;19916;-57
2021/07/16 02:51:58;;;;;;;;;;;16.10;1.00;;;;;;5048599;28;19919;-59
2021/07/16 02:54:23;;;;;;;;;;;16.10;1.00;;;;;;5048499;28;19931;-60
2021/07/16 02:56:49;;;;;;;;;;;16.10;1.00;;;;;;5047127;28;19909;-60
2021/07/16 02:59:14;;;;;;;;;;;16.00;1.00;;;;;;5047993;28;19912;-59
2021/07/16 03:01:56;;;;;;;;;;;16.00;1.00;;;;;;5048183;28;19952;-60
2021/07/16 03:04:22;;;;;;;;;;;16.00;1.00;;;;;;5048427;28;19909;-55
2021/07/16 03:06:47;;;;;;;;;;;16.00;1.00;;;;;;5040397;28;20405;-59
2021/07/16 03:09:13;;;;;;;;;;;16.10;1.00;;;;;;5027445;28;20502;-59
2021/07/16 03:11:38;;;;;;;;;;;16.10;1.00;;;;;;5027238;28;19917;-59
2021/07/16 03:14:04;;;;;;;;;;;16.10;1.00;;;;;;5029159;28;20443;-59
2021/07/16 03:16:30;;;;;;;;;;;16.10;1.00;;;;;;5032853;28;20011;-58
2021/07/16 03:18:59;;;;;;;;;;;16.10;1.00;;;;;;5031868;28;19910;-60
2021/07/16 03:21:24;;;;;;;;;;;16.10;1.00;;;;;;5052143;28;19959;-60
2021/07/16 03:23:50;;;;;;;;;;;16.10;1.00;;;;;;5052408;28;19956;-58
2021/07/16 03:26:15;;;;;;;;;;;16.20;1.00;;;;;;5051452;28;19909;-59
2021/07/16 03:28:41;;;;;;;;;;;16.20;1.00;;;;;;5051773;28;20011;-61
2021/07/16 03:31:07;;;;;;;;;;;16.20;1.00;;;;;;5051885;28;20318;-60
2021/07/16 03:33:33;;;;;;;;;;;16.20;1.00;;;;;;5051456;28;19913;-57
2021/07/16 03:35:58;;;;;;;;;;;16.20;1.00;;;;;;5052204;28;20237;-61
2021/07/16 03:38:24;;;;;;;;;;;16.20;1.00;;;;;;5051553;28;19974;-62
2021/07/16 03:40:54;;;;;;;;;;;16.20;1.00;;;;;;5051910;28;19909;-58
2021/07/16 03:43:20;;;;;;;;;;;16.20;1.00;;;;;;5050956;28;20349;-56
2021/07/16 03:45:45;;;;;;;;;;;16.20;1.00;;;;;;5052013;28;19939;-59
2021/07/16 03:48:11;;;;;;;;;;;16.30;1.00;;;;;;5050920;28;19908;-61
2021/07/16 03:50:36;;;;;;;;;;;16.20;1.00;;;;;;5051600;28;19960;-57
2021/07/16 03:53:02;;;;;;;;;;;16.30;1.00;;;;;;5052097;28;19908;-59
2021/07/16 03:55:27;;;;;;;;;;;16.30;1.00;;;;;;5051172;28;19912;-60
2021/07/16 03:57:53;;;;;;;;;;;16.30;1.00;;;;;;5050622;28;19910;-58
2021/07/16 04:00:23;;;;;;;;;;;16.30;1.00;;;;;;5051644;28;19919;-59
2021/07/16 04:02:48;;;;;;;;;;;16.30;1.00;;;;;;5051703;28;19917;-60
2021/07/16 04:05:14;;;;;;;;;;;16.30;1.00;;;;;;5067720;28;19919;-59
2021/07/16 04:07:45;;;;;;;;;;;16.30;1.00;;;;;;5071088;28;19909;-58
2021/07/16 04:10:12;;;;;;;;;;;16.30;1.00;;;;;;5071802;28;19916;-56
2021/07/16 04:12:37;;;;;;;;;;;16.30;1.00;;;;;;5070370;28;19975;-59
2021/07/16 04:15:03;;;;;;;;;;;16.30;1.00;;;;;;5071694;28;19908;-58
2021/07/16 04:17:29;;;;;;;;;;;16.20;1.00;;;;;;5070835;28;19920;-59
2021/07/16 04:19:54;;;;;;;;;;;16.20;1.00;;;;;;5061440;28;19909;-59
2021/07/16 04:22:22;;;;;;;;;;;16.20;1.00;;;;;;5051658;28;20002;-59
2021/07/16 04:24:48;;;;;;;;;;;16.20;1.00;;;;;;5051724;28;19913;-58
2021/07/16 04:27:13;;;;;;;;;;;16.20;1.00;;;;;;5049925;28;20286;-58
2021/07/16 04:29:39;;;;;;;;;;;16.20;1.00;;;;;;5050587;28;19957;-60
2021/07/16 04:32:05;;;;;;;;;;;16.10;1.00;;;;;;5042711;28;19979;-58
2021/07/16 04:34:31;;;;;;;;;;;16.10;1.00;;;;;;5048866;28;19917;-58
2021/07/16 04:36:57;;;;;;;;;;;16.10;1.00;;;;;;5050827;28;20230;-58
2021/07/16 04:39:23;;;;;;;;;;;16.20;1.00;;;;;;5050965;28;19909;-60
2021/07/16 04:41:48;;;;;;;;;;;16.20;1.00;;;;;;5049609;28;20321;-56
2021/07/16 04:44:14;;;;;;;;;;;16.20;1.00;;;;;;5031346;28;19917;-59
2021/07/16 04:46:39;;;;;;;;;;;16.30;1.00;;;;;;5030805;28;19933;-59
2021/07/16 04:49:06;;;;;;;;;;;16.30;1.00;;;;;;5029934;28;19909;-61
2021/07/16 04:51:33;;;;;;;;;;;16.40;1.00;;;;;;5030749;28;19917;-59
2021/07/16 04:53:59;;;;;;;;;;;16.40;1.00;;;;;;5030757;28;20278;-59
2021/07/16 04:56:25;;;;;;;;;;;16.40;1.00;;;;;;5040022;28;19908;-58
2021/07/16 04:58:50;;;;;;;;;;;16.40;1.00;;;;;;5049874;28;19909;-57
2021/07/16 05:01:16;;;;;;;;;;;16.40;1.00;;;;;;5050492;28;19928;-55
2021/07/16 05:03:42;;;;;;;;;;;16.30;1.00;;;;;;5053561;28;19909;-58
2021/07/16 05:06:08;;;;;;;;;;;16.30;1.00;;;;;;5067195;28;19913;-61
2021/07/16 05:08:33;;;;;;;;;;;16.20;1.00;;;;;;5048708;28;19928;-63
2021/07/16 05:10:59;;;;;;;;;;;16.30;1.00;;;;;;5047835;28;19916;-61
2021/07/16 05:13:26;;;;;;;;;;;16.30;1.00;;;;;;5047266;28;20059;-61
2021/07/16 05:15:52;;;;;;;;;;;16.40;1.00;;;;;;5047110;28;19909;-57
2021/07/16 05:18:17;;;;;;;;;;;16.40;1.00;;;;;;5045680;28;20428;-57
2021/07/16 05:20:44;;;;;;;;;;;16.40;1.00;;;;;;5047149;28;19920;-60
2021/07/16 05:23:09;;;;;;;;;;;16.40;1.00;;;;;;5046667;28;19935;-60
2021/07/16 05:25:35;;;;;;;;;;;16.40;1.00;;;;;;5046842;28;19913;-63
2021/07/16 05:28:00;;;;;;;;;;;16.40;1.00;;;;;;5046007;28;20011;-62
2021/07/16 05:30:26;;;;;;;;;;;16.40;1.00;;;;;;5047184;28;20356;-62
2021/07/16 05:32:51;;;;;;;;;;;16.30;1.00;;;;;;5046691;28;19909;-62
2021/07/16 05:35:20;;;;;;;;;;;16.40;1.00;;;;;;5047276;28;20423;-62
2021/07/16 05:37:46;;;;;;;;;;;16.30;1.00;;;;;;5045561;28;19960;-60
2021/07/16 05:40:12;;;;;;;;;;;16.40;1.00;;;;;;5047129;28;20466;-61
2021/07/16 05:42:38;;;;;;;;;;;16.40;1.00;;;;;;5035750;28;19970;-59
2021/07/16 05:45:03;;;;;;;;;;;16.30;1.00;;;;;;5045614;28;20004;-61
2021/07/16 05:47:29;;;;;;;;;;;16.30;1.00;;;;;;5045071;28;19955;-61
2021/07/16 05:49:54;;;;;;;;;;;16.30;1.00;;;;;;5046061;28;19908;-60
2021/07/16 05:52:20;;;;;;;;;;;16.40;1.00;;;;;;5045982;28;19913;-58
2021/07/16 05:54:45;;;;;;;;;;;16.50;1.00;;;;;;5045921;28;20275;-60
2021/07/16 05:57:11;;;;;;;;;;;16.60;1.00;;;;;;5044129;28;20297;-61
2021/07/16 05:59:36;;;;;;;;;;;16.80;1.00;;;;;;5045732;28;19909;-60
2021/07/16 06:02:02;;;;;;;;;;;16.90;1.00;;;;;;5046094;28;20357;-60
2021/07/16 06:04:27;;;;;;;;;;;17.20;1.00;;;;;;5045334;28;19990;-58
2021/07/16 06:06:53;;;;;;;;;;;17.40;1.00;;;;;;5037682;28;19909;-63
2021/07/16 06:09:18;;;;;;;;;;;17.50;1.00;;;;;;5025779;28;19917;-60
2021/07/16 06:11:44;;;;;;;;;;;17.50;1.00;;;;;;5025068;28;19936;-60
2021/07/16 06:14:09;;;;;;;;;;;17.60;1.00;;;;;;5026971;28;19919;-62
2021/07/16 06:16:35;;;;;;;;;;;17.70;1.00;;;;;;5025918;28;19924;-59
2021/07/16 06:19:00;;;;;;;;;;;17.80;1.00;;;;;;5030395;28;20004;-60
2021/07/16 06:21:26;;;;;;;;;;;17.80;1.00;;;;;;5044814;28;19999;-60
2021/07/16 06:23:52;;;;;;;;;;;17.90;1.00;;;;;;5040655;28;19917;-61
2021/07/16 06:26:18;;;;;;;;;;;17.90;1.00;;;;;;5045333;28;20257;-61
2021/07/16 06:28:43;;;;;;;;;;;17.80;1.00;;;;;;5044537;28;19913;-60
2021/07/16 06:31:08;;;;;;;;;;;17.90;1.00;;;;;;5045980;28;19912;-61
2021/07/16 06:33:34;;;;;;;;;;;18.00;1.00;;;;;;5044884;28;19908;-60
2021/07/16 06:36:00;;;;;;;;;;;18.10;1.00;;;;;;5046398;28;19920;-59
2021/07/16 06:38:25;;;;;;;;;;;18.30;1.00;;;;;;5045113;28;19913;-60
2021/07/16 06:40:51;;;;;;;;;;;18.50;1.00;;;;;;5046033;28;19909;-59
2021/07/16 06:43:16;;;;;;;;;;;18.80;1.00;;;;;;5045787;28;19915;-60
2021/07/16 06:45:42;;;;;;;;;;;19.30;1.00;;;;;;5045829;28;19913;-58
2021/07/16 06:48:07;;;;;;;;;;;19.70;1.00;;;;;;5045276;28;19913;-61
2021/07/16 06:50:33;;;;;;;;;;;20.20;1.00;;;;;;5045059;28;19912;-58
2021/07/16 06:52:58;;;;;;;;;;;20.70;1.00;;;;;;5046824;28;19909;-60
2021/07/16 06:55:24;;;;;;;;;;;21.10;99.90;;;;;;5046108;28;20004;-61
2021/07/16 06:57:49;;;;;;;;;;;21.50;1.00;;;;;;5044950;28;19988;-57
2021/07/16 07:00:15;;;;;;;;;;;21.90;1.00;;;;;;5046524;28;19920;-61
2021/07/16 07:02:41;;;;;;;;;;;22.40;1.00;;;;;;5045274;28;19917;-61
2021/07/16 07:05:07;;;;;;;;;;;23.40;99.90;;;;;;5045726;28;19908;-62
2021/07/16 07:07:32;;;;;;;;;;;25.50;99.90;;;;;;5044713;28;19909;-60
2021/07/16 07:09:58;;;;;;;;;;;27.30;1.00;;;;;;5045488;28;19921;-60
2021/07/16 07:12:23;;;;;;;;;;;28.40;1.00;;;;;;5044532;28;20508;-60
2021/07/16 07:14:49;;;;;;;;;;;29.10;99.90;;;;;;5045032;28;19954;-61
2021/07/16 07:17:14;;;;;;;;;;;29.10;99.90;;;;;;5045137;28;19944;-60
2021/07/16 07:19:40;;;;;;;;;;;28.80;99.90;;;;;;5041815;28;19913;-59
2021/07/16 07:22:05;;;;;;;;;;;29.50;99.90;;;;;;5045655;28;19909;-59
2021/07/16 07:24:31;;;;;;;;;;;30.20;99.90;;;;;;5045171;28;19912;-62
2021/07/16 07:26:57;;;;;;;;;;;30.80;99.90;;;;;;5043902;28;19913;-55
2021/07/16 07:29:24;;;;;;;;;;;31.40;99.90;;;;;;5044484;28;19909;-57
2021/07/16 07:31:49;;;;;;;;;;;32.80;99.90;;;;;;5045106;28;19920;-57
2021/07/16 07:34:15;;;;;;;;;;;33.70;99.90;;;;;;5045199;28;19908;-59
2021/07/16 07:36:40;;;;;;;;;;;32.80;99.90;;;;;;5044439;28;19916;-59
2021/07/16 07:39:06;;;;;;;;;;;31.90;99.90;;;;;;5045213;28;19909;-58
2021/07/16 07:41:31;;;;;;;;;;;31.30;99.90;;;;;;5044062;28;20365;-58
2021/07/16 07:43:57;;;;;;;;;;;30.90;99.90;;;;;;5027998;28;19913;-56
2021/07/16 07:46:23;;;;;;;;;;;31.30;99.90;;;;;;5038638;28;20324;-58
2021/07/16 07:48:49;;;;;;;;;;;32.30;99.90;;;;;;5047308;28;20261;-55
2021/07/16 07:51:14;;;;;;;;;;;31.70;99.90;;;;;;5048591;28;19912;-57
2021/07/16 07:53:40;;;;;;;;;;;31.20;99.90;;;;;;5047883;28;19913;-56
2021/07/16 07:56:05;;;;;;;;;;;31.20;99.90;;;;;;5047685;28;19909;-61
2021/07/16 07:58:31;;;;;;;;;;;32.30;99.90;;;;;;5046261;28;19908;-56
2021/07/16 08:00:56;;;;;;;;;;;33.50;99.90;;;;;;5049617;28;19921;-58
2021/07/16 08:03:22;;;;;;;;;;;33.00;99.90;;;;;;5052309;28;20388;-60
2021/07/16 08:05:48;;;;;;;;;;;33.00;99.90;;;;;;5071747;28;20199;-59
2021/07/16 08:08:13;;;;;;;;;;;34.10;99.90;;;;;;5071253;28;19924;-57
2021/07/16 08:10:39;;;;;;;;;;;35.90;99.90;;;;;;5071777;28;19916;-58
2021/07/16 08:13:04;;;;;;;;;;;35.20;99.90;;;;;;5069902;28;19919;-60
2021/07/16 08:15:30;;;;;;;;;;;36.10;99.90;;;;;;5071415;28;20570;-60
2021/07/16 08:17:55;;;;;;;;;;;34.90;99.90;;;;;;5070522;28;20360;-61
2021/07/16 08:20:21;;;;;;;;;;;33.50;99.90;;;;;;5057366;28;20289;-61
2021/07/16 08:22:46;;;;;;;;;;;32.30;99.90;;;;;;5051197;28;19920;-61
2021/07/16 08:25:13;;;;;;;;;;;32.10;99.90;;;;;;5051209;28;19913;-61
2021/07/16 08:27:39;;;;;;;;;;;31.00;99.90;;;;;;5049071;28;20003;-62
2021/07/16 08:30:05;;;;;;;;;;;29.50;99.90;;;;;;5050942;28;20310;-62
2021/07/16 08:32:31;;;;;;;;;;;28.50;99.90;;;;;;5051065;28;19915;-62
2021/07/16 08:34:56;;;;;;;;;;;28.70;99.90;;;;;;5050890;28;19920;-62
2021/07/16 08:37:22;;;;;;;;;;;29.50;99.90;;;;;;5050520;28;19912;-61
2021/07/16 08:39:47;;;;;;;;;;;30.20;99.90;;;;;;5050621;28;19913;-63
2021/07/16 08:42:16;;;;;;;;;;;31.90;99.90;;;;;;5049765;28;20263;-61
2021/07/16 08:44:44;;;;;;;;;;;33.80;99.90;;;;;;5050859;28;19913;-62
2021/07/16 08:47:10;;;;;;;;;;;35.30;99.90;;;;;;5049676;28;19924;-63
2021/07/16 08:49:36;;;;;;;;;;;37.50;99.90;;;;;;5048788;28;19912;-62
2021/07/16 08:52:02;;;;;;;;;;;38.70;99.90;;;;;;5050356;28;20331;-62
2021/07/16 08:54:28;;;;;;;;;;;39.20;99.90;;;;;;5050595;28;19916;-63
2021/07/16 08:56:54;;;;;;;;;;;40.20;99.90;;;;;;5048645;28;20441;-63
2021/07/16 08:59:19;;;;;;;;;;;40.80;99.90;;;;;;5049530;28;19988;-63
2021/07/16 09:01:46;;;;;;;;;;;41.40;99.90;;;;;;5049908;28;20003;-61
2021/07/16 09:04:12;;;;;;;;;;;39.40;99.90;;;;;;5050049;28;19916;-61
2021/07/16 09:06:43;;;;;;;;;;;36.90;99.90;;;;;;5043679;28;20023;-62
2021/07/16 09:09:09;;;;;;;;;;;35.20;99.90;;;;;;5029876;28;19924;-61
2021/07/16 09:11:42;;;;;;;;;;;34.00;99.90;;;;;;5028300;28;20289;-61
2021/07/16 09:14:07;;;;;;;;;;;32.80;99.90;;;;;;5028633;28;19983;-62
2021/07/16 09:16:34;;;;;;;;;;;31.80;99.90;;;;;;5049624;28;19944;-59
2021/07/16 09:18:59;;;;;;;;;;;31.10;99.90;;;;;;5048678;28;20325;-61
2021/07/16 09:21:25;;;;;;;;;;;30.40;99.90;;;;;;5049485;28;19932;-62
2021/07/16 09:23:50;;;;;;;;;;;29.80;99.90;;;;;;5050064;28;19917;-60
2021/07/16 09:26:23;;;;;;;;;;;29.10;99.90;;;;;;5049613;28;19912;-61
2021/07/16 09:28:50;;;;;;;;;;;28.60;99.90;;;;;;5049115;28;20376;-61
2021/07/16 09:31:15;;;;;;;;;;;28.10;99.90;;;;;;5050390;28;20014;-61
2021/07/16 09:33:41;;;;;;;;;;;27.90;99.90;;;;;;5043184;28;19978;-61
2021/07/16 09:36:06;;;;;;;;;;;27.60;99.90;;;;;;5030204;28;19920;-61
2021/07/16 09:38:34;;;;;;;;;;;27.70;99.90;;;;;;5033734;28;19916;-63
2021/07/16 09:41:04;;;;;;;;;;;29.40;99.90;;;;;;5049573;28;19924;-61
2021/07/16 09:43:30;;;;;;;;;;;31.50;99.90;;;;;;5048291;28;19916;-62
2021/07/16 09:46:00;;;;;;;;;;;32.50;99.90;;;;;;5049275;28;19912;-62
2021/07/16 09:48:28;;;;;;;;;;;32.30;99.90;;;;;;5045518;28;20373;-62
2021/07/16 09:51:14;;;;;;;;;;;32.10;99.90;;;;;;5049654;28;20330;-63
2021/07/16 09:53:50;;;;;;;;;;;31.60;99.90;;;;;;5048557;28;20273;-62
2021/07/16 09:56:18;;;;;;;;;;;30.90;99.90;;;;;;5048817;28;19916;-63
2021/07/16 09:58:44;;;;;;;;;;;30.30;99.90;;;;;;5047592;28;20277;-62
2021/07/16 10:01:10;;;;;;;;;;;29.40;99.90;;;;;;5049567;28;19917;-63
2021/07/16 10:03:39;;;;;;;;;;;28.20;99.90;;;;;;5051796;28;19959;-62
2021/07/16 10:06:06;;;;;;;;;;;27.20;99.90;;;;;;5069179;28;19947;-61
2021/07/16 10:08:34;;;;;;;;;;;26.70;99.90;;;;;;5068376;28;20258;-62
2021/07/16 10:11:01;;;;;;;;;;;26.60;99.90;;;;;;5068737;28;20222;-61
2021/07/16 10:13:27;;;;;;;;;;;27.10;99.90;;;;;;5059722;28;19924;-60
2021/07/16 10:15:53;;;;;;;;;;;28.50;99.90;;;;;;5048430;28;19970;-61
2021/07/16 10:18:19;;;;;;;;;;;31.00;99.90;;;;;;5047869;28;19985;-61
2021/07/16 10:20:45;;;;;;;;;;;33.60;99.90;;;;;;5047428;28;20016;-60
2021/07/16 10:23:11;;;;;;;;;;;36.40;99.90;;;;;;5049441;28;19968;-62
2021/07/16 10:25:37;;;;;;;;;;;37.80;99.90;;;;;;5048436;28;20376;-63
2021/07/16 10:28:02;;;;;;;;;;;36.70;99.90;;;;;;5047528;28;19915;-63
2021/07/16 10:30:32;;;;;;;;;;;33.90;99.90;;;;;;5048984;28;20349;-62
2021/07/16 10:32:59;;;;;;;;;;;31.60;99.90;;;;;;5048754;28;19916;-62
2021/07/16 10:35:26;;;;;;;;;;;29.40;99.90;;;;;;5048639;28;20364;-62
2021/07/16 10:37:53;;;;;;;;;;;28.10;99.90;;;;;;5048056;28;20329;-62
2021/07/16 10:40:35;;;;;;;;;;;27.30;99.90;;;;;;5043452;28;20361;-60
2021/07/16 10:43:01;;;;;;;;;;;26.60;99.90;;;;;;5039042;28;19913;-60
2021/07/16 10:45:40;;;;;;;;;;;26.20;99.90;;;;;;5032016;28;19973;-62
2021/07/16 10:48:16;;;;;;;;;;;25.90;99.90;;;;;;5048170;28;19920;-62
2021/07/16 10:50:42;;;;;;;;;;;25.70;99.90;;;;;;5049114;28;20007;-61
2021/07/16 10:53:13;;;;;;;;;;;25.30;99.90;;;;;;5049562;28;19964;-63
2021/07/16 10:55:39;;;;;;;;;;;25.30;99.90;;;;;;5049165;28;20069;-62
2021/07/16 10:58:23;;;;;;;;;;;25.60;99.90;;;;;;5047459;28;20023;-63
2021/07/16 11:00:50;;;;;;;;;;;25.90;99.90;;;;;;5048685;28;19921;-63
2021/07/16 11:03:17;;;;;;;;;;;27.00;99.90;;;;;;5046745;28;19967;-63
2021/07/16 11:05:43;;;;;;;;;;;29.20;99.90;;;;;;5069143;28;19913;-61
2021/07/16 11:08:27;;;;;;;;;;;30.90;99.90;;;;;;5059815;28;19994;-63
2021/07/16 11:10:58;;;;;;;;;;;32.90;99.90;;;;;;5048392;28;19908;-63
2021/07/16 11:13:30;;;;;;;;;;;34.40;99.90;;;;;;5047659;28;19913;-61
2021/07/16 11:15:55;;;;;;;;;;;36.00;99.90;;;;;;5047937;28;20341;-62
2021/07/16 11:18:27;;;;;;;;;;;37.20;99.90;;;;;;5047272;28;19962;-62
2021/07/16 11:20:56;;;;;;;;;;;37.00;99.90;;;;;;5048390;28;20095;-62
2021/07/16 11:23:41;;;;;;;;;;;35.50;99.90;;;;;;5048208;28;19909;-61
2021/07/16 11:26:13;;;;;;;;;;;34.20;99.90;;;;;;5044817;28;19927;-60
2021/07/16 11:28:39;;;;;;;;;;;33.10;99.90;;;;;;5046852;28;19917;-61
2021/07/16 11:31:04;;;;;;;;;;;32.30;99.90;;;;;;5047894;28;19919;-62
2021/07/16 11:33:30;;;;;;;;;;;31.10;99.90;;;;;;5047908;28;20441;-62
2021/07/16 11:35:59;;;;;;;;;;;30.20;99.90;;;;;;5050877;28;19909;-61
2021/07/16 11:38:25;;;;;;;;;;;29.60;99.90;;;;;;5052311;28;20019;-61
2021/07/16 11:40:51;;;;;;;;;;;28.40;99.90;;;;;;5052983;28;19913;-61
2021/07/16 11:43:16;;;;;;;;;;;27.80;99.90;;;;;;5053126;28;19909;-59
2021/07/16 11:45:43;;;;;;;;;;;27.50;99.90;;;;;;5052398;28;20077;-62
2021/07/16 11:48:17;;;;;;;;;;;27.60;99.90;;;;;;5051421;28;19976;-63
2021/07/16 11:50:46;;;;;;;;;;;28.20;99.90;;;;;;5057391;28;19928;-62
2021/07/16 11:53:12;;;;;;;;;;;27.90;99.90;;;;;;5063111;28;19921;-63
2021/07/16 11:55:38;;;;;;;;;;;28.30;99.90;;;;;;5048936;28;20427;-62
2021/07/16 11:58:04;;;;;;;;;;;29.00;99.90;;;;;;5040761;28;19944;-63
2021/07/16 12:00:37;;;;;;;;;;;29.40;99.90;;;;;;5040909;28;19917;-63
2021/07/16 12:03:13;;;;;;;;;;;29.70;99.90;;;;;;5037276;28;19989;-62
2021/07/16 12:05:46;;;;;;;;;;;30.20;99.90;;;;;;5052036;28;19915;-62
2021/07/16 12:08:11;;;;;;;;;;;30.90;99.90;;;;;;5031578;28;19913;-62
2021/07/16 12:10:37;;;;;;;;;;;31.20;99.90;;;;;;5030627;28;19971;-63
2021/07/16 12:13:03;;;;;;;;;;;31.30;99.90;;;;;;5030547;28;20246;-62
2021/07/16 12:15:28;;;;;;;;;;;31.40;99.90;;;;;;5032240;28;20318;-61
2021/07/16 12:18:01;;;;;;;;;;;31.10;99.90;;;;;;5030830;28;20019;-60
2021/07/16 12:20:30;;;;;;;;;;;30.70;99.90;;;;;;5044549;28;19923;-59
2021/07/16 12:22:56;;;;;;;;;;;30.50;99.90;;;;;;5050975;28;19920;-60
2021/07/16 12:25:22;;;;;;;;;;;30.40;99.90;;;;;;5050233;28;19909;-62
2021/07/16 12:28:21;;;;;;;;;;;30.00;99.90;;;;;;5049450;28;19974;-61
2021/07/16 12:30:47;;;;;;;;;;;29.60;99.90;;;;;;5042986;28;19983;-61
2021/07/16 12:33:12;;;;;;;;;;;29.00;99.90;;;;;;5050678;28;19967;-61
2021/07/16 12:35:42;;;;;;;;;;;28.30;99.90;;;;;;5050327;28;20357;-62
2021/07/16 12:38:09;;;;;;;;;;;27.80;99.90;;;;;;5050336;28;20414;-63
2021/07/16 12:40:35;;;;;;;;;;;27.40;99.90;;;;;;5050942;28;20329;-61
2021/07/16 12:43:07;;;;;;;;;;;26.60;99.90;;;;;;5049874;28;19909;-61
2021/07/16 12:45:40;;;;;;;;;;;26.20;99.90;;;;;;5050871;28;20255;-59
2021/07/16 12:48:09;;;;;;;;;;;26.00;99.90;;;;;;5049809;28;19966;-61
2021/07/16 12:50:35;;;;;;;;;;;25.90;99.90;;;;;;5050793;28;19909;-58
2021/07/16 12:53:01;;;;;;;;;;;26.10;99.90;;;;;;5050700;28;20004;-61
2021/07/16 12:55:30;;;;;;;;;;;26.00;99.90;;;;;;5050568;28;20377;-61
2021/07/16 12:57:59;;;;;;;;;;;25.90;99.90;;;;;;5049542;28;20019;-60
2021/07/16 13:00:25;;;;;;;;;;;26.00;99.90;;;;;;5050561;28;20315;-62
2021/07/16 13:02:51;;;;;;;;;;;25.70;99.90;;;;;;5049756;28;20003;-59
2021/07/16 13:05:30;;;;;;;;;;;25.70;99.90;;;;;;5066887;28;20009;-58
2021/07/16 13:08:31;;;;;;;;;;;25.70;99.90;;;;;;5069654;28;19916;-62
2021/07/16 13:11:02;;;;;;;;;;;25.70;99.90;;;;;;5007476;28;19922;-61
2021/07/16 13:13:30;;;;;;;;;;;25.50;99.90;;;;;;5058810;28;19912;-60
2021/07/16 13:16:14;;;;;;;;;;;25.60;99.90;;;;;;5059251;28;20321;-61
2021/07/16 13:18:41;;;;;;;;;;;25.70;99.90;;;;;;5048821;28;19944;-60
2021/07/16 13:21:07;;;;;;;;;;;25.70;99.90;;;;;;5048296;28;20007;-59
2021/07/16 13:23:34;;;;;;;;;;;25.70;99.90;;;;;;5050137;28;19936;-63
2021/07/16 13:26:00;;;;;;;;;;;26.00;99.90;;;;;;5049620;28;19970;-61
2021/07/16 13:28:26;;;;;;;;;;;26.10;99.90;;;;;;5049024;28;19924;-61
2021/07/16 13:30:51;;;;;;;;;;;26.40;99.90;;;;;;5049682;28;19909;-60
2021/07/16 13:33:17;;;;;;;;;;;26.90;99.90;;;;;;5049496;28;19913;-62
2021/07/16 13:35:42;;;;;;;;;;;27.20;99.90;;;;;;5049921;28;20361;-62
2021/07/16 13:38:08;;;;;;;;;;;27.20;99.90;;;;;;5048495;28;20015;-62
2021/07/16 13:40:34;;;;;;;;;;;27.40;99.90;;;;;;5049418;28;20414;-59
2021/07/16 13:42:59;;;;;;;;;;;27.60;99.90;;;;;;5039303;28;19909;-61
2021/07/16 13:45:25;;;;;;;;;;;27.80;99.90;;;;;;5029562;28;19946;-62
2021/07/16 13:47:50;;;;;;;;;;;27.60;99.90;;;;;;5028800;28;19931;-60
2021/07/16 13:50:16;;;;;;;;;;;27.20;99.90;;;;;;5029201;28;19913;-62
2021/07/16 13:52:41;;;;;;;;;;;26.90;99.90;;;;;;5029533;28;20003;-62
2021/07/16 13:55:07;;;;;;;;;;;26.60;99.90;;;;;;5029484;28;19923;-62
2021/07/16 13:57:34;;;;;;;;;;;26.60;99.90;;;;;;5027331;28;20321;-60
2021/07/16 14:00:04;;;;;;;;;;;26.70;99.90;;;;;;5029377;28;19909;-61
2021/07/16 14:02:30;;;;;;;;;;;26.60;99.90;;;;;;5029572;28;19909;-62
2021/07/16 14:04:56;;;;;;;;;;;26.30;99.90;;;;;;5056652;28;20100;-58
2021/07/16 14:07:22;;;;;;;;;;;26.30;99.90;;;;;;5068517;28;20216;-61
2021/07/16 14:09:47;;;;;;;;;;;26.40;99.90;;;;;;5083267;22;20114;-61
2021/07/16 14:12:13;;;;;;;;;;;26.50;99.90;;;;;;5067570;28;19920;-62
2021/07/16 14:14:41;;;;;;;;;;;26.70;99.90;;;;;;5068901;28;20364;-62
2021/07/16 14:17:07;;;;;;;;;;;27.00;99.90;;;;;;5068423;28;20326;-61
2021/07/16 14:19:32;;;;;;;;;;;27.10;99.90;;;;;;5067944;28;19954;-63
2021/07/16 14:21:58;;;;;;;;;;;27.00;99.90;;;;;;5068372;28;20373;-63